Aviation Digital Data Service (ADDS)

Output produced by METARs form (1716 UTC 23 September 2020)
found at http://aviationweather.gov/metar/data/
 
KMLU 231143Z 2312/2412 05006KT 5SM -RA BR BKN005 OVC012 
     TEMPO 2312/2315 2SM +SHRA BR OVC004 
     FM231500 05010KT 2SM +SHRA BR OVC010 
     FM232100 04012KT 2SM -DZ BR OVC004 
     FM240300 04013KT 1 1/2SM BR OVC004 
     FM240900 02013KT 4SM BR OVC007